Search for airport 
image banner adimage banner adimage banner ad
image banner ad

04NV - Kingston Ranch

Located in Sandy Valley, United States

ICAO - 04NV, IATA -

Data provided by Airmate  

General information

Coordinates: N35°45'20" W115°39'53"
Elevation is 2620 feet MSL.
Magnetic variation is 14° East
View others Airports in Nevada

Operational data

Special qualification required
Current time UTC:
Current local time:
Weather at : KHND - Henderson Executive ( 54 km )
METAR: KHND 130156Z 11004KT 10SM CLR 38/M08 A2981 RMK AO2 SLP077 T03781083
TAF: KHND 122320Z 1300/1324 15010KT P6SM SKC FM130400 19010KT P6SM SKC FM131200 VRB05KT P6SM FEW250 FM132100 20015G25KT P6SM FEW250
View NOTAMs / SUP AIP / TFR affecting this airport [VIEW]
Communications frequencies: [VIEW]

Runways:

RWY identifierQFULength (ft)Width (ft)SurfaceLDA (ft)
02324045ASPH
20324045ASPH

Airport contact information

Address: Sandy Valley United States

Satellite view of 04NV